createdAt,value
2019-05-29T00:00:32.721Z,79.11
2019-05-29T00:03:06.592Z,79.03
2019-05-29T00:05:38.884Z,79.19
2019-05-29T00:08:12.281Z,79.02
2019-05-29T00:10:44.621Z,79.38
2019-05-29T00:13:16.957Z,79.32
2019-05-29T00:15:49.130Z,79.78
2019-05-29T00:18:21.354Z,79.60
2019-05-29T00:20:53.423Z,79.46
2019-05-29T00:23:25.617Z,79.77
2019-05-29T00:25:57.916Z,80.04
2019-05-29T00:28:30.169Z,79.83
2019-05-29T00:31:02.408Z,79.79
2019-05-29T00:33:34.752Z,80.44
2019-05-29T00:36:08.141Z,79.73
2019-05-29T00:38:40.536Z,79.92
2019-05-29T00:41:13.035Z,80.07
2019-05-29T00:43:45.360Z,80.02
2019-05-29T00:46:17.667Z,79.97
2019-05-29T00:48:50.018Z,79.76
2019-05-29T00:51:23.863Z,80.21
2019-05-29T00:53:56.592Z,80.17
2019-05-29T00:56:28.954Z,79.92
2019-05-29T00:59:01.273Z,79.87
2019-05-29T01:01:33.655Z,80.10
2019-05-29T01:04:05.974Z,80.32
2019-05-29T01:06:38.270Z,80.54
2019-05-29T01:09:10.513Z,80.47
2019-05-29T01:11:42.711Z,80.47
2019-05-29T01:14:15.208Z,80.19
2019-05-29T01:16:47.407Z,79.95
2019-05-29T01:19:25.838Z,79.64
2019-05-29T01:21:58.128Z,79.89
2019-05-29T01:24:30.394Z,79.81
2019-05-29T01:27:02.598Z,79.79
2019-05-29T01:29:34.810Z,80.15
2019-05-29T01:32:07.014Z,79.98
2019-05-29T01:34:39.172Z,79.99
2019-05-29T01:37:11.423Z,79.82
2019-05-29T01:39:43.873Z,79.98
2019-05-29T01:42:17.247Z,80.38
2019-05-29T01:45:03.846Z,80.30
2019-05-29T01:47:23.748Z,79.87
2019-05-29T01:49:56.001Z,80.07
2019-05-29T01:52:28.274Z,80.42
2019-05-29T01:55:00.590Z,80.60
2019-05-29T01:57:32.867Z,80.02
2019-05-29T02:00:08.159Z,79.97
2019-05-29T02:02:40.516Z,79.95
2019-05-29T02:05:12.670Z,79.82
2019-05-29T02:07:44.877Z,79.46
2019-05-29T02:10:18.255Z,79.57
2019-05-29T02:12:51.737Z,79.79
2019-05-29T02:15:32.015Z,79.32
2019-05-29T02:17:57.935Z,79.33
2019-05-29T02:20:30.195Z,79.73
2019-05-29T02:23:02.509Z,79.69
2019-05-29T02:25:34.783Z,78.22
2019-05-29T02:28:06.945Z,77.46
2019-05-29T02:30:39.317Z,76.85
2019-05-29T02:33:11.876Z,75.87
2019-05-29T02:35:44.199Z,75.16
2019-05-29T02:38:16.410Z,74.08
2019-05-29T02:40:49.171Z,74.03
2019-05-29T02:43:23.389Z,72.96
2019-05-29T02:45:55.564Z,69.24
2019-05-29T02:48:29.590Z,68.89
2019-05-29T02:51:01.896Z,69.75
2019-05-29T02:53:34.075Z,70.11
2019-05-29T02:56:06.267Z,69.57
2019-05-29T02:58:38.452Z,69.16
2019-05-29T03:01:10.735Z,66.72
2019-05-29T03:03:43.052Z,66.87
2019-05-29T03:06:15.410Z,65.52
2019-05-29T03:08:49.184Z,65.26
2019-05-29T03:11:22.907Z,64.22
2019-05-29T03:13:55.303Z,63.13
2019-05-29T03:16:28.754Z,62.75
2019-05-29T03:19:01.527Z,63.73
2019-05-29T03:21:34.732Z,60.37
2019-05-29T03:24:07.181Z,60.26
2019-05-29T03:26:39.439Z,58.95
2019-05-29T03:29:11.684Z,60.60
2019-05-29T03:31:47.575Z,60.60
2019-05-29T03:34:17.918Z,59.57
2019-05-29T03:36:50.217Z,56.79
2019-05-29T03:39:22.439Z,55.37
2019-05-29T03:41:55.544Z,55.06
2019-05-29T03:44:28.689Z,54.67
2019-05-29T03:47:01.581Z,53.57
2019-05-29T03:49:37.259Z,52.32
2019-05-29T03:52:09.457Z,52.44
2019-05-29T03:54:41.764Z,52.63
2019-05-29T03:57:14.063Z,52.25
2019-05-29T03:59:46.328Z,53.07
2019-05-29T04:02:18.666Z,53.02
2019-05-29T04:04:50.856Z,55.07
2019-05-29T04:07:23.199Z,53.78
2019-05-29T04:09:55.338Z,53.53
2019-05-29T04:12:29.353Z,52.42
2019-05-29T04:15:01.596Z,52.21
2019-05-29T04:17:37.955Z,54.64
2019-05-29T04:20:10.361Z,54.40
2019-05-29T04:22:46.512Z,52.98
2019-05-29T04:25:17.716Z,51.26
2019-05-29T04:27:51.277Z,53.16
2019-05-29T04:30:23.429Z,52.72
2019-05-29T04:32:55.687Z,52.29
2019-05-29T04:35:28.279Z,52.46
2019-05-29T04:38:00.601Z,51.84
2019-05-29T04:40:33.393Z,52.58
2019-05-29T04:43:06.947Z,51.50
2019-05-29T04:45:40.708Z,54.70
2019-05-29T04:48:24.462Z,53.74
2019-05-29T04:50:56.840Z,52.97
2019-05-29T04:53:29.543Z,50.09
2019-05-29T04:56:03.338Z,50.63
2019-05-29T04:58:35.557Z,50.16
2019-05-29T05:01:08.362Z,46.74
2019-05-29T05:03:40.624Z,46.98
2019-05-29T05:06:12.913Z,45.02
2019-05-29T05:08:45.129Z,45.62
2019-05-29T05:11:17.629Z,46.65
2019-05-29T05:13:49.975Z,48.09
2019-05-29T05:16:22.385Z,48.02
2019-05-29T05:18:54.501Z,47.04
2019-05-29T05:21:28.362Z,46.06
2019-05-29T05:24:00.446Z,44.59
2019-05-29T05:26:32.776Z,45.72
2019-05-29T05:29:05.177Z,46.02
2019-05-29T05:31:38.547Z,47.95
2019-05-29T05:34:10.942Z,47.21
2019-05-29T05:36:43.213Z,46.68
2019-05-29T05:39:15.505Z,44.22
2019-05-29T05:41:47.518Z,42.97
2019-05-29T05:44:19.887Z,43.46
2019-05-29T05:46:51.966Z,39.42
2019-05-29T05:49:24.192Z,39.46
2019-05-29T05:51:56.442Z,39.63
2019-05-29T05:54:29.732Z,38.60
2019-05-29T05:57:01.953Z,38.31
2019-05-29T05:59:34.108Z,37.37
2019-05-29T06:02:08.338Z,37.25
2019-05-29T06:04:42.066Z,37.33
2019-05-29T06:07:14.477Z,39.06
2019-05-29T06:09:46.768Z,34.86
2019-05-29T06:12:19.035Z,35.67
2019-05-29T06:14:51.285Z,36.30
2019-05-29T06:17:23.481Z,34.58
2019-05-29T06:19:55.606Z,37.84
2019-05-29T06:22:27.732Z,36.09
2019-05-29T06:24:59.922Z,33.02
2019-05-29T06:27:34.046Z,30.76
2019-05-29T06:30:09.296Z,30.40
2019-05-29T06:32:44.013Z,30.21
2019-05-29T06:35:19.185Z,33.38
2019-05-29T06:37:53.880Z,34.29
2019-05-29T06:40:41.968Z,33.47
2019-05-29T06:43:24.904Z,33.08
2019-05-29T06:45:57.266Z,34.95
2019-05-29T06:48:42.966Z,33.52
2019-05-29T06:51:03.802Z,33.31
2019-05-29T06:53:36.009Z,34.42
2019-05-29T06:56:08.227Z,33.25
2019-05-29T06:58:40.555Z,32.62
2019-05-29T07:01:12.758Z,35.80
2019-05-29T07:03:45.028Z,36.99
2019-05-29T07:06:17.313Z,40.12
2019-05-29T07:08:50.328Z,43.60
2019-05-29T07:11:22.741Z,44.56
2019-05-29T07:13:55.054Z,45.95
2019-05-29T07:16:43.125Z,46.89
2019-05-29T07:19:25.341Z,46.72
2019-05-29T07:21:36.679Z,47.08
2019-05-29T07:24:09.254Z,46.95
2019-05-29T07:26:41.383Z,48.88
2019-05-29T07:29:13.599Z,48.37
2019-05-29T07:31:47.012Z,45.92
2019-05-29T07:34:20.628Z,46.74
2019-05-29T07:36:52.659Z,47.00
2019-05-29T07:39:24.752Z,47.42
2019-05-29T07:41:56.994Z,47.98
2019-05-29T07:44:29.122Z,48.04
2019-05-29T07:47:01.345Z,47.65
2019-05-29T07:49:38.930Z,47.34
2019-05-29T07:52:07.299Z,46.77
2019-05-29T07:54:39.972Z,46.14
2019-05-29T07:57:12.592Z,45.87
2019-05-29T07:59:44.877Z,44.26
2019-05-29T08:02:16.988Z,43.26
2019-05-29T08:04:49.821Z,42.93
2019-05-29T08:07:22.540Z,42.69
2019-05-29T08:09:54.686Z,43.79
2019-05-29T08:12:27.064Z,44.20
2019-05-29T08:14:59.366Z,44.93
2019-05-29T08:17:32.865Z,44.80
2019-05-29T08:20:07.965Z,44.41
2019-05-29T08:22:40.487Z,43.50
2019-05-29T08:25:13.503Z,43.83
2019-05-29T08:27:46.658Z,44.04
2019-05-29T08:30:19.470Z,44.47
2019-05-29T08:32:51.819Z,44.95
2019-05-29T08:35:23.910Z,45.33
2019-05-29T08:37:56.218Z,44.55
2019-05-29T08:40:28.459Z,44.55
2019-05-29T08:43:00.499Z,45.54
2019-05-29T08:45:32.572Z,46.80
2019-05-29T08:48:04.935Z,46.75
2019-05-29T08:50:37.253Z,45.98
2019-05-29T08:53:09.589Z,46.21
2019-05-29T08:55:42.063Z,45.61
2019-05-29T08:58:14.427Z,45.59
2019-05-29T09:00:50.552Z,44.54
2019-05-29T09:03:20.782Z,45.03
2019-05-29T09:06:07.933Z,44.33
2019-05-29T09:08:28.289Z,44.54
2019-05-29T09:11:00.750Z,43.67
2019-05-29T09:13:32.908Z,43.71
2019-05-29T09:16:05.223Z,44.42
2019-05-29T09:18:37.374Z,43.65
2019-05-29T09:21:09.679Z,43.47
2019-05-29T09:23:41.970Z,44.17
2019-05-29T09:26:20.674Z,43.93
2019-05-29T09:28:48.221Z,43.39
2019-05-29T09:31:21.875Z,43.63
2019-05-29T09:33:54.376Z,43.45
2019-05-29T09:36:26.522Z,42.62
2019-05-29T09:38:58.813Z,42.94
2019-05-29T09:41:31.088Z,41.78
2019-05-29T09:44:03.311Z,42.29
2019-05-29T09:46:35.416Z,42.05
2019-05-29T09:49:07.520Z,42.42
2019-05-29T09:51:39.677Z,42.90
2019-05-29T09:54:11.737Z,43.67
2019-05-29T09:56:44.096Z,42.47
2019-05-29T09:59:16.342Z,42.39
2019-05-29T10:01:48.522Z,42.62
2019-05-29T10:04:20.608Z,42.05
2019-05-29T10:06:53.137Z,41.05
2019-05-29T10:09:26.585Z,42.02
2019-05-29T10:12:03.270Z,41.81
2019-05-29T10:14:32.724Z,42.17
2019-05-29T10:17:09.251Z,41.97
2019-05-29T10:19:38.725Z,42.25
2019-05-29T10:22:10.771Z,42.01
2019-05-29T10:24:43.339Z,42.19
2019-05-29T10:27:15.455Z,42.30
2019-05-29T10:29:50.257Z,42.29
2019-05-29T10:32:21.692Z,41.80
2019-05-29T10:34:53.928Z,40.85
2019-05-29T10:37:26.168Z,40.85
2019-05-29T10:39:58.411Z,41.03
2019-05-29T10:42:30.482Z,41.31
2019-05-29T10:45:02.748Z,41.40
2019-05-29T10:47:36.464Z,41.52
2019-05-29T10:50:10.244Z,41.13
2019-05-29T10:52:43.740Z,40.81
2019-05-29T10:55:18.988Z,41.05
2019-05-29T10:57:53.081Z,41.27
2019-05-29T11:00:25.683Z,42.00
2019-05-29T11:03:00.663Z,40.56
2019-05-29T11:05:32.801Z,41.25
2019-05-29T11:08:05.092Z,40.75
2019-05-29T11:10:37.131Z,40.68
2019-05-29T11:13:09.399Z,41.24
2019-05-29T11:15:41.463Z,40.91
2019-05-29T11:18:13.640Z,40.38
2019-05-29T11:20:47.180Z,39.52
2019-05-29T11:23:20.989Z,39.67
2019-05-29T11:25:54.002Z,40.54
2019-05-29T11:28:27.150Z,39.81
2019-05-29T11:31:05.212Z,40.64
2019-05-29T11:33:35.548Z,40.31
2019-05-29T11:36:13.038Z,40.38
2019-05-29T11:38:43.742Z,37.94
2019-05-29T11:41:25.858Z,38.50
2019-05-29T11:43:51.208Z,39.25
2019-05-29T11:46:27.455Z,39.33
2019-05-29T11:48:59.566Z,39.12
2019-05-29T11:51:31.906Z,37.62
2019-05-29T11:54:03.930Z,36.71
2019-05-29T11:56:36.060Z,38.01
2019-05-29T11:59:08.072Z,38.47
2019-05-29T12:01:50.092Z,39.04
2019-05-29T12:04:25.706Z,39.39
2019-05-29T12:06:47.671Z,38.50
2019-05-29T12:09:32.061Z,37.21
2019-05-29T12:11:54.077Z,36.60
2019-05-29T12:14:26.844Z,36.72
2019-05-29T12:17:00.413Z,36.25
2019-05-29T12:19:32.778Z,37.04
2019-05-29T12:22:05.065Z,37.04
2019-05-29T12:24:37.157Z,35.85
2019-05-29T12:27:09.876Z,36.15
2019-05-29T12:29:42.146Z,36.04
2019-05-29T12:32:14.295Z,36.83
2019-05-29T12:34:53.724Z,37.37
2019-05-29T12:37:20.327Z,38.15
2019-05-29T12:39:53.245Z,37.89
2019-05-29T12:42:25.434Z,37.95
2019-05-29T12:44:57.729Z,37.92
2019-05-29T12:47:29.984Z,37.20
2019-05-29T12:50:02.660Z,37.32
2019-05-29T12:52:35.851Z,36.48
2019-05-29T12:55:09.475Z,36.63
2019-05-29T12:57:41.540Z,34.56
2019-05-29T13:00:16.649Z,35.55
2019-05-29T13:02:48.904Z,36.36
2019-05-29T13:05:21.211Z,37.38
2019-05-29T13:07:54.731Z,37.44
2019-05-29T13:10:31.030Z,37.81
2019-05-29T13:13:06.757Z,38.39
2019-05-29T13:15:35.285Z,38.78
2019-05-29T13:18:09.945Z,38.87
2019-05-29T13:20:41.219Z,39.07
2019-05-29T13:23:13.336Z,38.37
2019-05-29T13:25:45.606Z,39.06
2019-05-29T13:28:17.775Z,38.77
2019-05-29T13:30:49.942Z,39.01
2019-05-29T13:33:22.166Z,37.27
2019-05-29T13:35:54.132Z,37.56
2019-05-29T13:38:26.351Z,38.06
2019-05-29T13:40:58.508Z,38.25
2019-05-29T13:43:30.547Z,38.43
2019-05-29T13:46:02.811Z,37.75
2019-05-29T13:48:34.858Z,37.46
2019-05-29T13:51:07.388Z,37.56
2019-05-29T13:53:39.607Z,36.67
2019-05-29T13:56:11.699Z,37.39
2019-05-29T13:58:43.690Z,38.23
2019-05-29T14:01:15.860Z,38.22
2019-05-29T14:03:50.680Z,38.68
2019-05-29T14:06:21.781Z,37.90
2019-05-29T14:08:53.925Z,37.90
2019-05-29T14:11:25.984Z,38.56
2019-05-29T14:13:59.166Z,37.08
2019-05-29T14:16:31.292Z,37.34
2019-05-29T14:19:04.787Z,37.14
2019-05-29T14:21:37.077Z,37.27
2019-05-29T14:24:26.293Z,37.23
2019-05-29T14:26:42.908Z,36.24
2019-05-29T14:29:15.026Z,36.87
2019-05-29T14:31:47.156Z,37.14
2019-05-29T14:34:19.344Z,36.81
2019-05-29T14:36:51.565Z,35.97
2019-05-29T14:39:23.577Z,36.42
2019-05-29T14:41:55.608Z,37.02
2019-05-29T14:44:27.938Z,36.51
2019-05-29T14:46:59.901Z,36.56
2019-05-29T14:49:31.907Z,37.19
2019-05-29T14:52:04.530Z,36.30
2019-05-29T14:54:41.949Z,36.53
2019-05-29T14:57:22.636Z,36.63
2019-05-29T14:59:44.654Z,36.58
2019-05-29T15:02:23.553Z,36.60
2019-05-29T15:04:50.749Z,36.85
2019-05-29T15:07:23.184Z,36.75
2019-05-29T15:09:55.321Z,36.90
2019-05-29T15:12:28.386Z,36.75
2019-05-29T15:15:00.995Z,37.11
2019-05-29T15:17:33.259Z,37.23
2019-05-29T15:20:09.912Z,37.59
2019-05-29T15:22:42.699Z,38.31
2019-05-29T15:25:23.709Z,38.86
2019-05-29T15:27:49.257Z,37.50
2019-05-29T15:30:23.499Z,37.59
2019-05-29T15:32:55.525Z,37.85
2019-05-29T15:35:27.641Z,37.54
2019-05-29T15:37:59.902Z,38.26
2019-05-29T15:40:33.111Z,38.25
2019-05-29T15:43:06.530Z,37.23
2019-05-29T15:45:38.873Z,37.71
2019-05-29T15:48:11.058Z,37.24
2019-05-29T15:50:43.109Z,37.24
2019-05-29T15:53:15.270Z,37.84
2019-05-29T15:55:47.270Z,38.11
2019-05-29T15:58:19.490Z,38.43
2019-05-29T16:00:51.759Z,37.76
2019-05-29T16:03:23.890Z,37.26
2019-05-29T16:05:57.031Z,37.33
2019-05-29T16:08:29.029Z,37.61
2019-05-29T16:11:01.086Z,37.70
2019-05-29T16:13:33.319Z,37.92
2019-05-29T16:16:06.880Z,38.01
2019-05-29T16:18:39.161Z,38.59
2019-05-29T16:21:12.543Z,38.62
2019-05-29T16:23:44.635Z,38.97
2019-05-29T16:26:18.548Z,39.27
2019-05-29T16:28:50.568Z,39.64
2019-05-29T16:31:23.062Z,40.35
2019-05-29T16:33:55.208Z,40.55
2019-05-29T16:36:27.418Z,41.07
2019-05-29T16:38:59.600Z,40.90
2019-05-29T16:41:31.702Z,41.30
2019-05-29T16:44:04.474Z,41.47
2019-05-29T16:46:36.701Z,41.89
2019-05-29T16:49:08.668Z,42.01
2019-05-29T16:51:42.045Z,42.39
2019-05-29T16:54:14.898Z,42.58
2019-05-29T16:56:47.213Z,42.80
2019-05-29T16:59:19.421Z,43.18
2019-05-29T17:01:51.634Z,43.01
2019-05-29T17:04:24.021Z,43.25
2019-05-29T17:06:56.405Z,43.84
2019-05-29T17:09:28.611Z,44.06
2019-05-29T17:12:00.957Z,44.54
2019-05-29T17:14:33.217Z,44.77
2019-05-29T17:17:05.461Z,44.98
2019-05-29T17:19:37.646Z,45.40
2019-05-29T17:22:09.941Z,45.83
2019-05-29T17:24:42.002Z,46.29
2019-05-29T17:27:14.573Z,46.83
2019-05-29T17:29:46.820Z,47.35
2019-05-29T17:32:19.218Z,47.72
2019-05-29T17:34:51.405Z,48.01
2019-05-29T17:37:25.092Z,48.47
2019-05-29T17:39:57.654Z,48.87
2019-05-29T17:42:30.027Z,49.32
2019-05-29T17:45:02.662Z,49.73
2019-05-29T17:47:35.180Z,50.39
2019-05-29T17:50:08.251Z,50.63
2019-05-29T17:52:40.594Z,50.88
2019-05-29T17:55:12.896Z,51.27
2019-05-29T17:57:45.088Z,51.67
2019-05-29T18:00:20.527Z,52.07
2019-05-29T18:02:53.151Z,52.34
2019-05-29T18:05:26.680Z,52.67
2019-05-29T18:08:01.605Z,52.96
2019-05-29T18:10:32.715Z,53.26
2019-05-29T18:13:04.944Z,53.38
2019-05-29T18:15:37.086Z,53.52
2019-05-29T18:18:11.376Z,53.86
2019-05-29T18:20:43.524Z,54.10
2019-05-29T18:23:15.812Z,54.28
2019-05-29T18:25:48.214Z,54.50
2019-05-29T18:28:20.339Z,54.57
2019-05-29T18:30:52.487Z,54.93
2019-05-29T18:33:27.152Z,55.08
2019-05-29T18:35:59.509Z,55.36
2019-05-29T18:38:32.754Z,55.55
2019-05-29T18:41:06.208Z,55.84
2019-05-29T18:43:38.414Z,56.19
2019-05-29T18:46:10.577Z,56.32
2019-05-29T18:48:43.751Z,56.43
2019-05-29T18:51:15.887Z,56.93
2019-05-29T18:53:47.951Z,57.04
2019-05-29T18:56:20.319Z,57.42
2019-05-29T18:58:52.524Z,57.52
2019-05-29T19:01:25.439Z,57.74
2019-05-29T19:03:59.085Z,57.71
2019-05-29T19:06:31.904Z,57.99
2019-05-29T19:09:05.618Z,58.28
2019-05-29T19:11:37.878Z,58.48
2019-05-29T19:14:10.234Z,58.57
2019-05-29T19:16:42.993Z,58.61
2019-05-29T19:19:16.088Z,58.72
2019-05-29T19:21:48.332Z,58.73
2019-05-29T19:24:20.649Z,58.62
2019-05-29T19:26:52.750Z,59.08
2019-05-29T19:29:26.928Z,59.30
2019-05-29T19:31:59.312Z,59.19
2019-05-29T19:34:31.650Z,58.77
2019-05-29T19:37:03.951Z,57.97
2019-05-29T19:39:36.148Z,57.34
2019-05-29T19:42:08.479Z,58.23
2019-05-29T19:44:40.473Z,58.22
2019-05-29T19:47:12.762Z,57.42
2019-05-29T19:49:44.998Z,57.26
2019-05-29T19:52:17.265Z,57.14
2019-05-29T19:54:50.024Z,57.27
2019-05-29T19:57:22.024Z,57.32
2019-05-29T19:59:54.364Z,57.29
2019-05-29T20:02:26.642Z,57.68
2019-05-29T20:04:58.794Z,57.80
2019-05-29T20:07:31.090Z,58.15
2019-05-29T20:10:03.952Z,58.30
2019-05-29T20:12:36.218Z,58.38
2019-05-29T20:15:08.888Z,58.57
2019-05-29T20:17:40.995Z,58.77
2019-05-29T20:20:13.251Z,58.86
2019-05-29T20:22:45.437Z,59.10
2019-05-29T20:25:17.650Z,59.35
2019-05-29T20:28:05.252Z,59.67
2019-05-29T20:30:23.761Z,59.82
2019-05-29T20:32:55.916Z,59.88
2019-05-29T20:35:27.953Z,59.86
2019-05-29T20:38:00.219Z,60.50
2019-05-29T20:40:33.018Z,61.14
2019-05-29T20:43:08.338Z,61.37
2019-05-29T20:45:43.425Z,61.84
2019-05-29T20:48:15.826Z,62.13
2019-05-29T20:50:48.903Z,61.84
2019-05-29T20:53:21.097Z,62.05
2019-05-29T20:55:53.194Z,61.06
2019-05-29T20:58:25.345Z,60.30
2019-05-29T21:00:57.611Z,60.03
2019-05-29T21:03:30.527Z,59.92
2019-05-29T21:06:05.053Z,59.82
2019-05-29T21:08:37.144Z,59.57
2019-05-29T21:11:09.331Z,59.64
2019-05-29T21:13:41.579Z,59.22
2019-05-29T21:16:13.810Z,59.23
2019-05-29T21:18:46.008Z,58.84
2019-05-29T21:21:18.144Z,58.84
2019-05-29T21:23:50.118Z,58.58
2019-05-29T21:26:22.268Z,58.40
2019-05-29T21:28:56.166Z,58.50
2019-05-29T21:31:28.225Z,57.93
2019-05-29T21:34:00.418Z,58.09
2019-05-29T21:36:37.987Z,57.74
2019-05-29T21:39:15.704Z,57.56
2019-05-29T21:41:48.652Z,57.46
2019-05-29T21:44:20.717Z,57.58
2019-05-29T21:46:52.982Z,57.51
2019-05-29T21:49:31.546Z,57.43
2019-05-29T21:52:03.221Z,57.55
2019-05-29T21:54:35.185Z,57.63
2019-05-29T21:57:08.394Z,57.94
2019-05-29T21:59:40.356Z,58.08
2019-05-29T22:02:12.809Z,58.11
2019-05-29T22:04:46.171Z,57.96
2019-05-29T22:07:18.733Z,58.32
2019-05-29T22:09:50.695Z,58.30
2019-05-29T22:12:23.704Z,58.25
2019-05-29T22:14:56.846Z,58.54
2019-05-29T22:17:29.195Z,58.43
2019-05-29T22:20:01.289Z,58.68
2019-05-29T22:22:33.621Z,58.91
2019-05-29T22:25:07.558Z,58.99
2019-05-29T22:27:40.746Z,59.24
2019-05-29T22:30:13.305Z,59.33
2019-05-29T22:32:45.541Z,60.05
2019-05-29T22:35:17.628Z,60.06
2019-05-29T22:37:49.693Z,59.98
2019-05-29T22:40:22.678Z,60.09
2019-05-29T22:42:55.610Z,60.32
2019-05-29T22:45:27.615Z,60.41
2019-05-29T22:48:00.159Z,60.66
2019-05-29T22:50:32.247Z,60.78
2019-05-29T22:53:04.401Z,60.98
2019-05-29T22:55:36.442Z,61.29
2019-05-29T22:58:08.624Z,62.15
2019-05-29T23:00:40.759Z,62.44
2019-05-29T23:03:13.039Z,62.71
2019-05-29T23:05:45.317Z,62.82
2019-05-29T23:08:17.431Z,63.77
2019-05-29T23:10:49.714Z,63.33
2019-05-29T23:13:22.029Z,63.51
2019-05-29T23:15:54.500Z,63.54
2019-05-29T23:18:26.866Z,63.21
2019-05-29T23:21:00.630Z,62.82
2019-05-29T23:23:32.939Z,62.99
2019-05-29T23:26:05.030Z,63.31
2019-05-29T23:28:37.465Z,63.76
2019-05-29T23:31:09.644Z,63.91
2019-05-29T23:33:41.815Z,64.23
2019-05-29T23:36:14.034Z,64.64
2019-05-29T23:38:46.378Z,65.00
2019-05-29T23:41:18.475Z,65.40
2019-05-29T23:43:50.560Z,66.01
2019-05-29T23:46:22.762Z,66.36
2019-05-29T23:48:55.403Z,66.66
2019-05-29T23:51:27.923Z,66.46
2019-05-29T23:54:00.311Z,66.73
2019-05-29T23:56:32.653Z,67.11
2019-05-29T23:59:04.911Z,67.08
